createdAt,value
2023-04-15T00:00:23.465Z,98613.84
2023-04-15T00:01:10.420Z,98612.03
2023-04-15T00:02:00.224Z,98615.88
2023-04-15T00:02:47.359Z,98618.38
2023-04-15T00:03:35.170Z,98617.09
2023-04-15T00:04:22.429Z,98613.22
2023-04-15T00:05:09.663Z,98609.34
2023-04-15T00:05:58.344Z,98610.81
2023-04-15T00:06:53.922Z,98615.47
2023-04-15T00:07:41.627Z,98618.56
2023-04-15T00:08:30.347Z,98621.19
2023-04-15T00:09:17.383Z,98620.13
2023-04-15T00:10:05.722Z,98621.66
2023-04-15T00:10:53.265Z,98613.59
2023-04-15T00:11:40.270Z,98621.25
2023-04-15T00:12:28.262Z,98621.06
2023-04-15T00:13:15.651Z,98622.53
2023-04-15T00:14:02.687Z,98621.41
2023-04-15T00:14:50.380Z,98616.78
2023-04-15T00:15:37.930Z,98614.34
2023-04-15T00:16:25.002Z,98613.53
2023-04-15T00:17:12.244Z,98615.50
2023-04-15T00:17:59.244Z,98618.81
2023-04-15T00:18:46.672Z,98616.97
2023-04-15T00:19:33.624Z,98613.72
2023-04-15T00:20:21.205Z,98615.19
2023-04-15T00:21:08.218Z,98612.00
2023-04-15T00:21:55.373Z,98611.19
2023-04-15T00:22:42.390Z,98617.03
2023-04-15T00:23:29.432Z,98627.00
2023-04-15T00:24:17.531Z,98625.62
2023-04-15T00:25:04.719Z,98621.37
2023-04-15T00:25:52.262Z,98622.28
2023-04-15T00:26:39.692Z,98619.13
2023-04-15T00:27:26.722Z,98617.66
2023-04-15T00:28:14.206Z,98618.22
2023-04-15T00:29:01.592Z,98623.19
2023-04-15T00:29:48.772Z,98611.00
2023-04-15T00:30:35.835Z,98622.37
2023-04-15T00:31:23.410Z,98622.63
2023-04-15T00:32:10.639Z,98621.75
2023-04-15T00:32:57.604Z,98618.59
2023-04-15T00:33:45.000Z,98619.72
2023-04-15T00:34:31.912Z,98624.78
2023-04-15T00:35:19.165Z,98624.22
2023-04-15T00:36:07.512Z,98626.81
2023-04-15T00:36:54.738Z,98624.59
2023-04-15T00:37:41.582Z,98619.53
2023-04-15T00:38:29.014Z,98626.38
2023-04-15T00:39:16.667Z,98626.38
2023-04-15T00:40:06.685Z,98628.22
2023-04-15T00:40:53.713Z,98623.19
2023-04-15T00:41:40.732Z,98630.78
2023-04-15T00:42:28.313Z,98625.66
2023-04-15T00:43:16.684Z,98630.31
2023-04-15T00:44:03.843Z,98627.97
2023-04-15T00:44:50.887Z,98628.37
2023-04-15T00:45:37.886Z,98625.03
2023-04-15T00:46:26.328Z,98632.34
2023-04-15T00:47:14.006Z,98619.19
2023-04-15T00:48:01.120Z,98621.03
2023-04-15T00:48:48.195Z,98613.75
2023-04-15T00:49:35.384Z,98621.91
2023-04-15T00:50:22.805Z,98627.00
2023-04-15T00:51:09.942Z,98626.91
2023-04-15T00:51:57.370Z,98624.66
2023-04-15T00:52:44.494Z,98625.22
2023-04-15T00:53:31.577Z,98621.37
2023-04-15T00:54:18.594Z,98625.94
2023-04-15T00:55:06.770Z,98613.37
2023-04-15T00:55:54.630Z,98623.41
2023-04-15T00:56:42.361Z,98624.97
2023-04-15T00:57:29.644Z,98620.72
2023-04-15T00:58:16.985Z,98622.75
2023-04-15T00:59:04.816Z,98624.03
2023-04-15T00:59:52.898Z,98624.88
2023-04-15T01:00:41.251Z,98630.22
2023-04-15T01:01:29.083Z,98619.03
2023-04-15T01:02:16.688Z,98627.81
2023-04-15T01:03:04.152Z,98629.94
2023-04-15T01:03:52.017Z,98625.16
2023-04-15T01:04:39.155Z,98628.28
2023-04-15T01:05:27.382Z,98626.78
2023-04-15T01:06:14.726Z,98615.56
2023-04-15T01:07:01.713Z,98618.72
2023-04-15T01:07:49.177Z,98622.41
2023-04-15T01:08:36.612Z,98619.25
2023-04-15T01:09:23.652Z,98620.53
2023-04-15T01:10:10.968Z,98622.59
2023-04-15T01:10:59.620Z,98622.72
2023-04-15T01:11:46.627Z,98616.91
2023-04-15T01:12:34.614Z,98622.63
2023-04-15T01:13:22.514Z,98625.03
2023-04-15T01:14:10.492Z,98620.72
2023-04-15T01:14:57.647Z,98626.88
2023-04-15T01:15:44.824Z,98624.19
2023-04-15T01:16:32.561Z,98621.50
2023-04-15T01:17:20.199Z,98619.72
2023-04-15T01:18:07.741Z,98622.28
2023-04-15T01:18:55.413Z,98621.25
2023-04-15T01:19:42.553Z,98625.44
2023-04-15T01:20:30.017Z,98617.56
2023-04-15T01:21:17.147Z,98619.91
2023-04-15T01:22:05.625Z,98627.94
2023-04-15T01:22:52.962Z,98634.81
2023-04-15T01:23:40.060Z,98624.97
2023-04-15T01:24:28.455Z,98623.56
2023-04-15T01:25:20.029Z,98623.19
2023-04-15T01:26:09.255Z,98623.19
2023-04-15T01:26:56.193Z,98625.62
2023-04-15T01:27:43.894Z,98620.94
2023-04-15T01:28:33.852Z,98621.59
2023-04-15T01:29:20.911Z,98625.72
2023-04-15T01:30:08.816Z,98620.81
2023-04-15T01:31:11.994Z,98620.50
2023-04-15T01:31:59.343Z,98627.72
2023-04-15T01:32:46.411Z,98625.53
2023-04-15T01:33:33.763Z,98626.56
2023-04-15T01:34:21.252Z,98620.94
2023-04-15T01:35:09.097Z,98617.50
2023-04-15T01:35:56.097Z,98621.19
2023-04-15T01:36:43.267Z,98616.69
2023-04-15T01:37:30.426Z,98624.44
2023-04-15T01:38:17.483Z,98621.13
2023-04-15T01:39:05.772Z,98617.03
2023-04-15T01:39:52.861Z,98615.56
2023-04-15T01:40:41.143Z,98613.78
2023-04-15T01:41:28.673Z,98614.63
2023-04-15T01:42:16.062Z,98617.50
2023-04-15T01:43:04.052Z,98614.81
2023-04-15T01:43:51.532Z,98612.31
2023-04-15T01:44:38.435Z,98609.88
2023-04-15T01:45:26.032Z,98615.72
2023-04-15T01:46:13.008Z,98609.88
2023-04-15T01:47:01.075Z,98613.59
2023-04-15T01:47:48.195Z,98614.87
2023-04-15T01:48:35.216Z,98618.84
2023-04-15T01:49:22.753Z,98610.97
2023-04-15T01:50:10.179Z,98615.97
2023-04-15T01:50:58.419Z,98620.87
2023-04-15T01:51:45.838Z,98614.31
2023-04-15T01:52:32.979Z,98618.78
2023-04-15T01:53:20.896Z,98616.75
2023-04-15T01:54:08.110Z,98611.94
2023-04-15T01:54:55.070Z,98618.03
2023-04-15T01:55:42.100Z,98612.31
2023-04-15T01:56:29.168Z,98614.94
2023-04-15T01:57:16.139Z,98613.53
2023-04-15T01:58:03.576Z,98614.06
2023-04-15T01:58:50.709Z,98611.25
2023-04-15T01:59:37.756Z,98608.63
2023-04-15T02:00:25.217Z,98612.97
2023-04-15T02:01:13.449Z,98612.16
2023-04-15T02:02:00.819Z,98610.09
2023-04-15T02:02:47.797Z,98613.09
2023-04-15T02:03:35.240Z,98616.75
2023-04-15T02:04:22.368Z,98611.16
2023-04-15T02:05:09.947Z,98612.88
2023-04-15T02:05:57.179Z,98611.94
2023-04-15T02:06:44.596Z,98615.88
2023-04-15T02:07:32.657Z,98610.38
2023-04-15T02:08:19.690Z,98612.72
2023-04-15T02:09:06.710Z,98610.22
2023-04-15T02:09:53.619Z,98616.03
2023-04-15T02:10:40.589Z,98613.34
2023-04-15T02:11:27.620Z,98607.63
2023-04-15T02:12:14.619Z,98615.50
2023-04-15T02:13:02.129Z,98609.50
2023-04-15T02:13:49.254Z,98611.34
2023-04-15T02:14:36.219Z,98611.03
2023-04-15T02:15:23.293Z,98608.41
2023-04-15T02:16:20.159Z,98613.72
2023-04-15T02:17:08.590Z,98610.72
2023-04-15T02:17:55.909Z,98619.69
2023-04-15T02:18:43.641Z,98618.69
2023-04-15T02:19:30.643Z,98622.81
2023-04-15T02:20:21.620Z,98615.44
2023-04-15T02:21:09.169Z,98610.72
2023-04-15T02:21:56.290Z,98610.72
2023-04-15T02:22:43.309Z,98612.53
2023-04-15T02:23:30.329Z,98609.97
2023-04-15T02:24:17.290Z,98615.94
2023-04-15T02:25:04.675Z,98605.13
2023-04-15T02:25:53.251Z,98615.09
2023-04-15T02:26:41.303Z,98613.72
2023-04-15T02:27:29.192Z,98610.66
2023-04-15T02:28:16.180Z,98604.03
2023-04-15T02:29:03.177Z,98616.16
2023-04-15T02:29:51.562Z,98611.22
2023-04-15T02:30:38.723Z,98610.78
2023-04-15T02:31:26.514Z,98609.38
2023-04-15T02:32:14.285Z,98608.47
2023-04-15T02:33:02.283Z,98606.25
2023-04-15T02:33:49.664Z,98610.12
2023-04-15T02:34:37.937Z,98609.09
2023-04-15T02:35:26.150Z,98607.13
2023-04-15T02:36:13.216Z,98607.88
2023-04-15T02:37:00.165Z,98614.84
2023-04-15T02:37:47.242Z,98612.34
2023-04-15T02:38:34.228Z,98611.00
2023-04-15T02:39:21.145Z,98615.72
2023-04-15T02:40:12.632Z,98611.81
2023-04-15T02:40:59.898Z,98611.13
2023-04-15T02:41:52.127Z,98606.87
2023-04-15T02:42:40.457Z,98608.53
2023-04-15T02:43:27.533Z,98606.81
2023-04-15T02:44:14.385Z,98613.00
2023-04-15T02:45:01.511Z,98615.56
2023-04-15T02:45:48.739Z,98611.44
2023-04-15T02:46:36.822Z,98610.56
2023-04-15T02:47:23.954Z,98606.78
2023-04-15T02:48:11.282Z,98610.16
2023-04-15T02:49:00.451Z,98612.84
2023-04-15T02:49:47.678Z,98613.03
2023-04-15T02:50:34.601Z,98609.13
2023-04-15T02:51:23.016Z,98605.81
2023-04-15T02:52:10.308Z,98611.63
2023-04-15T02:52:57.300Z,98610.03
2023-04-15T02:53:44.240Z,98612.16
2023-04-15T02:54:32.851Z,98613.37
2023-04-15T02:55:19.829Z,98605.38
2023-04-15T02:56:06.925Z,98608.06
2023-04-15T02:56:55.619Z,98611.09
2023-04-15T02:57:42.715Z,98611.50
2023-04-15T02:58:29.808Z,98606.78
2023-04-15T02:59:17.296Z,98609.75
2023-04-15T03:00:05.697Z,98612.44
2023-04-15T03:00:52.797Z,98610.16
2023-04-15T03:01:39.828Z,98610.16
2023-04-15T03:02:26.926Z,98609.97
2023-04-15T03:03:15.536Z,98611.81
2023-04-15T03:04:02.900Z,98611.09
2023-04-15T03:04:50.154Z,98611.56
2023-04-15T03:05:39.253Z,98616.75
2023-04-15T03:06:26.628Z,98612.56
2023-04-15T03:07:13.577Z,98614.41
2023-04-15T03:08:01.619Z,98619.16
2023-04-15T03:08:48.719Z,98616.03
2023-04-15T03:09:36.603Z,98609.81
2023-04-15T03:10:23.668Z,98615.13
2023-04-15T03:11:10.718Z,98617.94
2023-04-15T03:11:57.726Z,98615.63
2023-04-15T03:12:44.709Z,98609.81
2023-04-15T03:13:31.942Z,98612.78
2023-04-15T03:14:18.954Z,98618.56
2023-04-15T03:15:06.825Z,98612.03
2023-04-15T03:15:53.995Z,98622.22
2023-04-15T03:16:41.065Z,98608.22
2023-04-15T03:17:28.051Z,98611.22
2023-04-15T03:18:15.154Z,98607.97
2023-04-15T03:19:02.286Z,98615.81
2023-04-15T03:19:49.373Z,98615.63
2023-04-15T03:20:36.736Z,98614.41
2023-04-15T03:21:24.205Z,98617.03
2023-04-15T03:22:11.303Z,98613.41
2023-04-15T03:22:58.322Z,98616.63
2023-04-15T03:23:45.365Z,98617.88
2023-04-15T03:24:32.327Z,98612.91
2023-04-15T03:25:19.330Z,98613.16
2023-04-15T03:26:06.494Z,98613.44
2023-04-15T03:26:53.517Z,98614.50
2023-04-15T03:27:40.597Z,98613.84
2023-04-15T03:28:27.637Z,98615.06
2023-04-15T03:29:14.586Z,98612.97
2023-04-15T03:30:01.644Z,98608.75
2023-04-15T03:30:48.738Z,98615.34
2023-04-15T03:31:35.957Z,98608.22
2023-04-15T03:32:23.011Z,98617.00
2023-04-15T03:33:09.987Z,98616.28
2023-04-15T03:33:56.948Z,98611.38
2023-04-15T03:34:44.438Z,98609.28
2023-04-15T03:35:31.552Z,98612.78
2023-04-15T03:36:18.465Z,98615.41
2023-04-15T03:37:05.906Z,98613.78
2023-04-15T03:37:52.836Z,98612.03
2023-04-15T03:38:39.799Z,98612.66
2023-04-15T03:39:27.370Z,98612.59
2023-04-15T03:40:14.392Z,98612.38
2023-04-15T03:41:01.609Z,98616.88
2023-04-15T03:41:48.577Z,98618.66
2023-04-15T03:42:35.769Z,98617.81
2023-04-15T03:43:22.867Z,98616.41
2023-04-15T03:44:09.847Z,98613.09
2023-04-15T03:44:57.011Z,98612.91
2023-04-15T03:45:44.005Z,98623.44
2023-04-15T03:46:31.217Z,98620.94
2023-04-15T03:47:18.220Z,98618.12
2023-04-15T03:48:16.693Z,98621.66
2023-04-15T03:49:05.388Z,98618.31
2023-04-15T03:49:52.436Z,98620.13
2023-04-15T03:50:39.438Z,98620.00
2023-04-15T03:51:26.785Z,98621.03
2023-04-15T03:52:13.941Z,98622.81
2023-04-15T03:53:00.984Z,98620.13
2023-04-15T03:53:48.018Z,98614.00
2023-04-15T03:54:34.965Z,98611.22
2023-04-15T03:55:21.947Z,98615.19
2023-04-15T03:56:08.977Z,98623.22
2023-04-15T03:56:57.053Z,98614.63
2023-04-15T03:57:44.199Z,98615.38
2023-04-15T03:58:31.334Z,98624.62
2023-04-15T03:59:18.301Z,98612.31
2023-04-15T04:00:06.782Z,98610.34
2023-04-15T04:00:55.059Z,98621.78
2023-04-15T04:01:42.146Z,98622.34
2023-04-15T04:02:29.327Z,98619.75
2023-04-15T04:03:16.863Z,98613.84
2023-04-15T04:04:03.979Z,98614.81
2023-04-15T04:04:51.401Z,98615.41
2023-04-15T04:05:39.383Z,98614.37
2023-04-15T04:06:26.960Z,98618.03
2023-04-15T04:07:17.703Z,98622.94
2023-04-15T04:08:05.205Z,98616.47
2023-04-15T04:08:52.214Z,98613.78
2023-04-15T04:09:40.917Z,98615.31
2023-04-15T04:10:27.997Z,98612.81
2023-04-15T04:11:15.131Z,98615.75
2023-04-15T04:12:02.926Z,98614.63
2023-04-15T04:12:49.894Z,98615.34
2023-04-15T04:13:37.001Z,98618.72
2023-04-15T04:14:29.793Z,98618.41
2023-04-15T04:15:16.888Z,98616.53
2023-04-15T04:16:05.167Z,98619.84
2023-04-15T04:16:52.308Z,98620.19
2023-04-15T04:17:39.354Z,98619.66
2023-04-15T04:18:26.411Z,98621.47
2023-04-15T04:19:14.974Z,98621.91
2023-04-15T04:20:02.005Z,98618.22
2023-04-15T04:20:49.065Z,98622.69
2023-04-15T04:21:36.802Z,98622.75
2023-04-15T04:22:24.751Z,98623.44
2023-04-15T04:23:12.067Z,98615.94
2023-04-15T04:23:59.278Z,98625.62
2023-04-15T04:24:46.177Z,98621.41
2023-04-15T04:25:33.366Z,98627.41
2023-04-15T04:26:20.370Z,98624.81
2023-04-15T04:27:07.380Z,98628.13
2023-04-15T04:27:54.386Z,98630.66
2023-04-15T04:28:41.481Z,98623.19
2023-04-15T04:29:28.514Z,98632.62
2023-04-15T04:30:15.582Z,98631.28
2023-04-15T04:31:02.626Z,98630.03
2023-04-15T04:31:49.794Z,98634.81
2023-04-15T04:32:36.815Z,98629.72
2023-04-15T04:33:23.908Z,98630.94
2023-04-15T04:34:11.085Z,98631.09
2023-04-15T04:34:58.102Z,98634.72
2023-04-15T04:35:45.189Z,98632.16
2023-04-15T04:36:32.215Z,98636.22
2023-04-15T04:37:19.198Z,98636.28
2023-04-15T04:38:06.302Z,98640.19
2023-04-15T04:38:53.205Z,98638.28
2023-04-15T04:39:40.505Z,98631.09
2023-04-15T04:40:27.916Z,98640.19
2023-04-15T04:41:14.976Z,98645.22
2023-04-15T04:42:01.922Z,98641.31
2023-04-15T04:42:48.927Z,98638.50
2023-04-15T04:43:36.249Z,98644.59
2023-04-15T04:44:23.211Z,98643.63
2023-04-15T04:45:10.538Z,98640.31
2023-04-15T04:45:57.789Z,98645.56
2023-04-15T04:46:44.756Z,98648.88
2023-04-15T04:47:31.954Z,98648.75
2023-04-15T04:48:19.113Z,98644.13
2023-04-15T04:49:06.157Z,98644.00
2023-04-15T04:49:53.173Z,98641.09
2023-04-15T04:50:40.202Z,98649.50
2023-04-15T04:51:27.275Z,98645.78
2023-04-15T04:52:14.379Z,98647.81
2023-04-15T04:53:01.870Z,98645.97
2023-04-15T04:53:48.958Z,98643.75
2023-04-15T04:54:36.087Z,98644.78
2023-04-15T04:55:23.235Z,98650.56
2023-04-15T04:56:10.206Z,98652.44
2023-04-15T04:56:58.132Z,98653.91
2023-04-15T04:57:45.242Z,98646.25
2023-04-15T04:58:32.265Z,98647.69
2023-04-15T04:59:19.566Z,98651.53
2023-04-15T05:00:09.095Z,98653.25
2023-04-15T05:00:57.078Z,98646.72
2023-04-15T05:01:44.135Z,98650.13
2023-04-15T05:02:31.349Z,98647.69
2023-04-15T05:03:19.098Z,98653.78
2023-04-15T05:04:07.929Z,98654.41
2023-04-15T05:04:55.092Z,98650.38
2023-04-15T05:05:42.212Z,98658.56
2023-04-15T05:06:30.812Z,98652.22
2023-04-15T05:07:17.767Z,98657.50
2023-04-15T05:08:04.956Z,98659.37
2023-04-15T05:08:51.911Z,98657.69
2023-04-15T05:09:38.865Z,98655.09
2023-04-15T05:10:25.936Z,98656.78
2023-04-15T05:11:13.257Z,98652.47
2023-04-15T05:12:00.202Z,98656.31
2023-04-15T05:12:47.285Z,98660.25
2023-04-15T05:13:34.395Z,98647.84
2023-04-15T05:14:22.943Z,98655.03
2023-04-15T05:15:11.042Z,98658.13
2023-04-15T05:15:58.046Z,98655.25
2023-04-15T05:16:45.268Z,98663.53
2023-04-15T05:17:33.727Z,98659.44
2023-04-15T05:18:20.876Z,98658.81
2023-04-15T05:19:08.215Z,98667.72
2023-04-15T05:19:55.278Z,98657.91
2023-04-15T05:20:42.421Z,98658.22
2023-04-15T05:21:29.325Z,98666.13
2023-04-15T05:22:16.249Z,98664.28
2023-04-15T05:23:03.346Z,98664.50
2023-04-15T05:23:50.347Z,98658.50
2023-04-15T05:24:37.456Z,98659.47
2023-04-15T05:25:24.356Z,98663.28
2023-04-15T05:26:11.747Z,98662.06
2023-04-15T05:26:58.816Z,98655.28
2023-04-15T05:27:46.304Z,98658.44
2023-04-15T05:28:33.330Z,98657.63
2023-04-15T05:29:20.389Z,98662.59
2023-04-15T05:30:07.967Z,98660.53
2023-04-15T05:30:55.265Z,98654.34
2023-04-15T05:31:42.519Z,98661.56
2023-04-15T05:32:29.534Z,98660.37
2023-04-15T05:33:16.808Z,98659.59
2023-04-15T05:34:03.851Z,98664.94
2023-04-15T05:34:51.270Z,98660.34
2023-04-15T05:35:38.469Z,98663.66
2023-04-15T05:36:26.345Z,98663.19
2023-04-15T05:37:13.589Z,98662.19
2023-04-15T05:38:00.967Z,98664.75
2023-04-15T05:38:48.038Z,98663.09
2023-04-15T05:39:34.982Z,98667.50
2023-04-15T05:40:21.960Z,98665.47
2023-04-15T05:41:09.478Z,98663.81
2023-04-15T05:41:56.426Z,98665.94
2023-04-15T05:42:43.502Z,98666.53
2023-04-15T05:43:30.919Z,98666.78
2023-04-15T05:44:17.971Z,98666.16
2023-04-15T05:45:05.746Z,98661.81
2023-04-15T05:45:52.988Z,98672.94
2023-04-15T05:46:40.016Z,98671.88
2023-04-15T05:47:27.746Z,98671.25
2023-04-15T05:48:14.740Z,98668.00
2023-04-15T05:49:02.132Z,98665.34
2023-04-15T05:49:49.232Z,98667.59
2023-04-15T05:50:36.468Z,98660.94
2023-04-15T05:51:23.670Z,98665.53
2023-04-15T05:52:10.667Z,98664.31
2023-04-15T05:52:57.636Z,98666.41
2023-04-15T05:53:46.190Z,98666.81
2023-04-15T05:54:33.171Z,98663.31
2023-04-15T05:55:20.344Z,98666.44
2023-04-15T05:56:07.712Z,98665.59
2023-04-15T05:56:55.030Z,98664.09
2023-04-15T05:57:42.158Z,98666.78
2023-04-15T05:58:29.130Z,98669.28
2023-04-15T05:59:16.377Z,98670.31
2023-04-15T06:00:04.046Z,98666.41
2023-04-15T06:00:51.479Z,98663.72
2023-04-15T06:01:38.656Z,98674.69
2023-04-15T06:02:26.874Z,98672.81
2023-04-15T06:03:14.055Z,98663.66
2023-04-15T06:04:02.110Z,98670.28
2023-04-15T06:04:49.341Z,98674.22
2023-04-15T06:05:36.267Z,98673.84
2023-04-15T06:06:23.332Z,98673.63
2023-04-15T06:07:11.319Z,98667.84
2023-04-15T06:07:58.337Z,98668.06
2023-04-15T06:08:45.607Z,98669.09
2023-04-15T06:09:33.015Z,98678.62
2023-04-15T06:10:20.003Z,98673.00
2023-04-15T06:11:06.980Z,98678.19
2023-04-15T06:11:54.060Z,98678.19
2023-04-15T06:12:41.306Z,98671.16
2023-04-15T06:13:28.558Z,98674.50
2023-04-15T06:14:15.497Z,98676.34
2023-04-15T06:15:02.817Z,98683.19
2023-04-15T06:15:49.978Z,98674.87
2023-04-15T06:16:37.167Z,98676.97
2023-04-15T06:17:24.219Z,98680.06
2023-04-15T06:18:12.537Z,98677.19
2023-04-15T06:18:59.718Z,98679.25
2023-04-15T06:19:47.757Z,98679.91
2023-04-15T06:20:35.069Z,98674.31
2023-04-15T06:21:22.549Z,98685.00
2023-04-15T06:22:09.657Z,98676.56
2023-04-15T06:22:57.126Z,98689.56
2023-04-15T06:23:45.686Z,98682.56
2023-04-15T06:24:34.235Z,98688.53
2023-04-15T06:25:21.229Z,98680.72
2023-04-15T06:26:08.757Z,98682.56
2023-04-15T06:26:56.445Z,98683.19
2023-04-15T06:27:43.808Z,98686.28
2023-04-15T06:28:31.515Z,98689.22
2023-04-15T06:29:18.995Z,98685.28
2023-04-15T06:30:06.997Z,98689.78
2023-04-15T06:30:55.256Z,98685.00
2023-04-15T06:31:42.411Z,98682.13
2023-04-15T06:32:29.749Z,98692.63
2023-04-15T06:33:16.849Z,98688.66
2023-04-15T06:34:03.886Z,98687.09
2023-04-15T06:34:51.095Z,98691.28
2023-04-15T06:35:38.597Z,98687.34
2023-04-15T06:36:25.903Z,98691.50
2023-04-15T06:37:16.557Z,98698.13
2023-04-15T06:38:03.732Z,98697.31
2023-04-15T06:38:50.770Z,98692.59
2023-04-15T06:39:38.582Z,98695.09
2023-04-15T06:40:25.765Z,98697.19
2023-04-15T06:41:13.167Z,98689.72
2023-04-15T06:42:00.300Z,98697.56
2023-04-15T06:42:47.625Z,98693.41
2023-04-15T06:43:35.226Z,98694.44
2023-04-15T06:44:22.456Z,98699.44
2023-04-15T06:45:09.983Z,98701.09
2023-04-15T06:45:57.667Z,98699.03
2023-04-15T06:46:45.814Z,98701.91
2023-04-15T06:47:33.070Z,98690.78
2023-04-15T06:48:20.115Z,98694.22
2023-04-15T06:49:07.206Z,98698.75
2023-04-15T06:49:54.154Z,98690.69
2023-04-15T06:50:41.695Z,98699.63
2023-04-15T06:51:29.120Z,98699.94
2023-04-15T06:52:17.004Z,98699.28
2023-04-15T06:53:04.193Z,98701.03
2023-04-15T06:53:51.172Z,98704.03
2023-04-15T06:54:38.334Z,98708.62
2023-04-15T06:55:25.565Z,98704.16
2023-04-15T06:56:12.675Z,98699.28
2023-04-15T06:56:59.824Z,98699.03
2023-04-15T06:57:46.837Z,98706.22
2023-04-15T06:58:34.183Z,98702.94
2023-04-15T06:59:21.397Z,98703.06
2023-04-15T07:00:11.606Z,98698.56
2023-04-15T07:00:59.037Z,98706.25
2023-04-15T07:01:46.355Z,98702.94
2023-04-15T07:02:42.754Z,98698.44
2023-04-15T07:03:32.616Z,98702.53
2023-04-15T07:04:20.670Z,98704.66
2023-04-15T07:05:08.532Z,98707.47
2023-04-15T07:05:55.361Z,98712.87
2023-04-15T07:06:42.303Z,98710.53
2023-04-15T07:07:29.237Z,98708.84
2023-04-15T07:08:16.067Z,98711.63
2023-04-15T07:09:04.348Z,98709.94
2023-04-15T07:09:54.327Z,98723.84
2023-04-15T07:10:42.398Z,98715.38
2023-04-15T07:11:29.689Z,98722.28
2023-04-15T07:12:17.149Z,98718.66
2023-04-15T07:13:04.981Z,98716.25
2023-04-15T07:13:52.495Z,98718.44
2023-04-15T07:14:39.483Z,98720.34
2023-04-15T07:15:26.930Z,98721.75
2023-04-15T07:16:13.997Z,98724.53
2023-04-15T07:17:01.321Z,98722.44
2023-04-15T07:17:48.575Z,98725.94
2023-04-15T07:18:35.706Z,98722.91
2023-04-15T07:19:23.755Z,98723.84
2023-04-15T07:20:11.675Z,98725.69
2023-04-15T07:20:59.031Z,98724.06
2023-04-15T07:21:49.146Z,98719.75
2023-04-15T07:22:37.170Z,98725.41
2023-04-15T07:23:24.580Z,98726.66
2023-04-15T07:24:12.220Z,98724.22
2023-04-15T07:25:00.351Z,98729.00
2023-04-15T07:25:47.838Z,98725.53
2023-04-15T07:26:34.741Z,98725.81
2023-04-15T07:27:23.058Z,98724.34
2023-04-15T07:28:10.365Z,98725.41
2023-04-15T07:28:58.445Z,98729.69
2023-04-15T07:29:47.336Z,98730.88
2023-04-15T07:30:35.042Z,98732.03
2023-04-15T07:31:24.626Z,98730.22
2023-04-15T07:32:12.614Z,98733.69
2023-04-15T07:32:59.809Z,98734.91
2023-04-15T07:33:47.541Z,98729.31
2023-04-15T07:34:37.264Z,98731.44
2023-04-15T07:35:26.047Z,98733.34
2023-04-15T07:36:13.895Z,98733.69
2023-04-15T07:37:02.937Z,98734.75
2023-04-15T07:37:50.563Z,98739.41
2023-04-15T07:38:37.905Z,98734.44
2023-04-15T07:39:27.253Z,98741.63
2023-04-15T07:40:14.966Z,98734.06
2023-04-15T07:41:02.279Z,98735.28
2023-04-15T07:41:51.745Z,98738.81
2023-04-15T07:42:41.390Z,98738.44
2023-04-15T07:43:29.534Z,98740.84
2023-04-15T07:44:17.953Z,98737.84
2023-04-15T07:45:05.754Z,98741.09
2023-04-15T07:45:53.339Z,98741.84
2023-04-15T07:46:40.810Z,98736.16
2023-04-15T07:47:28.022Z,98743.81
2023-04-15T07:48:15.823Z,98736.25
2023-04-15T07:49:03.210Z,98745.38
2023-04-15T07:49:51.773Z,98733.00
2023-04-15T07:50:39.514Z,98742.22
2023-04-15T07:51:29.825Z,98735.41
2023-04-15T07:52:17.206Z,98742.78
2023-04-15T07:53:04.633Z,98747.25
2023-04-15T07:53:52.057Z,98745.09
2023-04-15T07:54:39.216Z,98741.63
2023-04-15T07:55:28.218Z,98747.84
2023-04-15T07:56:16.727Z,98748.06
2023-04-15T07:57:06.649Z,98745.47
2023-04-15T07:57:54.108Z,98740.00
2023-04-15T07:58:41.989Z,98744.03
2023-04-15T07:59:32.283Z,98747.66
2023-04-15T08:00:20.908Z,98746.25
2023-04-15T08:01:08.397Z,98740.28
2023-04-15T08:01:55.871Z,98743.81
2023-04-15T08:02:43.699Z,98745.78
2023-04-15T08:03:32.746Z,98745.63
2023-04-15T08:04:21.692Z,98744.63
2023-04-15T08:05:09.840Z,98750.44
2023-04-15T08:05:57.323Z,98744.75
2023-04-15T08:06:44.428Z,98747.53
2023-04-15T08:07:32.811Z,98752.94
2023-04-15T08:08:19.627Z,98741.00
2023-04-15T08:09:07.366Z,98754.41
2023-04-15T08:09:54.431Z,98737.63
2023-04-15T08:10:42.032Z,98755.22
2023-04-15T08:11:30.247Z,98739.50
2023-04-15T08:12:18.790Z,98740.09
2023-04-15T08:13:05.675Z,98742.09
2023-04-15T08:13:53.157Z,98739.44
2023-04-15T08:14:41.225Z,98742.63
2023-04-15T08:15:29.387Z,98743.72
2023-04-15T08:16:28.715Z,98747.47
2023-04-15T08:17:17.328Z,98750.84
2023-04-15T08:18:05.084Z,98757.66
2023-04-15T08:18:54.193Z,98756.63
2023-04-15T08:19:42.760Z,98751.00
2023-04-15T08:20:30.188Z,98744.69
2023-04-15T08:21:20.026Z,98753.75
2023-04-15T08:22:10.881Z,98749.53
2023-04-15T08:23:05.068Z,98763.28
2023-04-15T08:23:53.878Z,98754.78
2023-04-15T08:24:40.784Z,98761.22
2023-04-15T08:25:27.965Z,98754.16
2023-04-15T08:26:15.727Z,98760.09
2023-04-15T08:27:05.006Z,98758.91
2023-04-15T08:28:49.692Z,98753.84
2023-04-15T08:29:37.212Z,98768.50
2023-04-15T08:30:24.459Z,98767.19
2023-04-15T08:31:12.537Z,98768.28
2023-04-15T08:32:02.614Z,98763.34
2023-04-15T08:32:50.700Z,98771.12
2023-04-15T08:33:37.881Z,98769.00
2023-04-15T08:34:25.036Z,98771.69
2023-04-15T08:35:12.236Z,98762.22
2023-04-15T08:35:59.352Z,98771.09
2023-04-15T08:36:46.906Z,98770.94
2023-04-15T08:37:34.005Z,98771.41
2023-04-15T08:38:21.286Z,98772.91
2023-04-15T08:39:08.926Z,98765.66
2023-04-15T08:39:55.961Z,98770.75
2023-04-15T08:40:44.926Z,98776.50
2023-04-15T08:41:42.071Z,98775.56
2023-04-15T08:42:33.020Z,98773.31
2023-04-15T08:43:26.845Z,98776.59
2023-04-15T08:44:15.003Z,98776.84
2023-04-15T08:45:04.959Z,98774.66
2023-04-15T08:45:53.081Z,98773.91
2023-04-15T08:46:40.302Z,98776.34
2023-04-15T08:47:30.658Z,98771.03
2023-04-15T08:48:18.085Z,98770.25
2023-04-15T08:49:05.693Z,98769.19
2023-04-15T08:49:54.535Z,98777.09
2023-04-15T08:50:41.689Z,98772.50
2023-04-15T08:51:29.524Z,98777.41
2023-04-15T08:52:16.615Z,98775.53
2023-04-15T08:53:03.756Z,98775.34
2023-04-15T08:53:51.175Z,98778.91
2023-04-15T08:54:39.072Z,98782.72
2023-04-15T08:55:36.679Z,98785.59
2023-04-15T08:56:26.443Z,98784.47
2023-04-15T08:57:14.777Z,98784.41
2023-04-15T08:58:03.136Z,98781.63
2023-04-15T08:58:51.165Z,98781.84
2023-04-15T08:59:38.181Z,98785.69
2023-04-15T09:00:27.456Z,98784.62
2023-04-15T09:01:14.705Z,98783.03
2023-04-15T09:02:01.999Z,98791.19
2023-04-15T09:02:49.223Z,98790.41
2023-04-15T09:03:37.301Z,98786.75
2023-04-15T09:04:24.483Z,98788.69
2023-04-15T09:05:11.872Z,98793.34
2023-04-15T09:05:59.565Z,98789.09
2023-04-15T09:06:46.830Z,98789.59
2023-04-15T09:07:36.922Z,98789.94
2023-04-15T09:08:23.959Z,98794.28
2023-04-15T09:09:11.120Z,98789.16
2023-04-15T09:09:59.008Z,98792.97
2023-04-15T09:10:45.972Z,98787.78
2023-04-15T09:11:33.120Z,98791.13
2023-04-15T09:12:20.157Z,98787.88
2023-04-15T09:13:07.288Z,98792.47
2023-04-15T09:13:54.653Z,98793.66
2023-04-15T09:14:43.139Z,98794.09
2023-04-15T09:15:30.930Z,98794.16
2023-04-15T09:16:18.115Z,98794.94
2023-04-15T09:17:05.822Z,98789.03
2023-04-15T09:17:52.873Z,98791.63
2023-04-15T09:18:40.161Z,98792.25
2023-04-15T09:19:28.167Z,98795.91
2023-04-15T09:20:16.967Z,98795.34
2023-04-15T09:21:12.531Z,98800.81